Time;durP1;ratioP1;P1;durP2;ratioP2;P2;SDS_P1;SDS_P2;PMS_P1;PMS_P2;Temp;Humidity;BMP_temperature;BMP_pressure;BME280_temperature;BME280_humidity;BME280_pressure;Samples;Min_cycle;Max_cycle;Signal;HPM_P1;HPM_P2
2022/07/13 00:02:06;;;;;;;2.40;1.80;;;;;;;17.71;98.90;101245.69;5180115;28;20053;-73
2022/07/13 00:04:36;;;;;;;2.20;1.70;;;;;;;17.85;96.67;101248.44;5180930;28;20030;-73
2022/07/13 00:07:07;;;;;;;3.47;1.75;;;;;;;17.55;100.00;101250.09;5169371;28;20567;-72
2022/07/13 00:09:37;;;;;;;4.10;1.88;;;;;;;17.51;99.60;101246.75;5165284;28;20045;-73
2022/07/13 00:12:07;;;;;;;2.60;1.90;;;;;;;17.43;100.00;101248.09;5172348;28;20450;-73
2022/07/13 00:14:38;;;;;;;4.60;1.92;;;;;;;17.44;99.58;101236.59;5177909;28;20213;-73
2022/07/13 00:17:08;;;;;;;2.50;1.55;;;;;;;17.34;99.87;101240.66;5174666;28;20512;-73
2022/07/13 00:19:39;;;;;;;3.60;1.90;;;;;;;17.41;99.38;101234.97;5165238;28;20078;-73
2022/07/13 00:22:09;;;;;;;5.47;1.77;;;;;;;17.61;98.01;101228.59;5148079;28;20057;-73
2022/07/13 00:24:39;;;;;;;3.25;2.03;;;;;;;17.72;96.74;101234.19;5166796;28;20030;-73
2022/07/13 00:27:10;;;;;;;5.22;1.88;;;;;;;17.71;97.85;101240.41;5167404;28;20026;-73
2022/07/13 00:29:40;;;;;;;2.55;1.85;;;;;;;17.82;97.21;101238.06;5165413;28;20199;-73
2022/07/13 00:32:11;;;;;;;2.55;1.63;;;;;;;17.75;98.11;101226.94;5179973;28;20108;-73
2022/07/13 00:34:41;;;;;;;2.65;1.75;;;;;;;17.94;97.22;101232.94;5181778;28;20505;-73
2022/07/13 00:37:11;;;;;;;2.13;1.40;;;;;;;18.17;94.77;101239.59;5163339;28;20026;-73
2022/07/13 00:39:42;;;;;;;2.42;1.77;;;;;;;17.85;96.88;101232.59;5177095;28;20021;-73
2022/07/13 00:42:12;;;;;;;2.80;1.63;;;;;;;17.90;96.07;101239.34;5176404;28;20022;-72
2022/07/13 00:44:42;;;;;;;2.35;1.58;;;;;;;17.95;96.06;101239.94;5179809;28;20107;-73
2022/07/13 00:47:13;;;;;;;3.17;2.00;;;;;;;18.01;95.23;101238.75;5179394;28;20158;-73
2022/07/13 00:49:44;;;;;;;2.22;1.60;;;;;;;18.10;95.72;101240.84;5163668;28;20507;-73
2022/07/13 00:52:15;;;;;;;3.08;1.77;;;;;;;18.14;93.80;101237.97;5173678;28;20274;-73
2022/07/13 00:54:46;;;;;;;2.83;1.30;;;;;;;18.18;94.93;101233.34;5178653;28;20376;-73
2022/07/13 00:57:17;;;;;;;5.28;1.88;;;;;;;18.02;95.03;101229.88;5179413;28;20029;-73
2022/07/13 00:59:47;;;;;;;2.75;1.77;;;;;;;17.83;96.31;101229.16;5179497;28;20032;-73
2022/07/13 01:02:18;;;;;;;3.92;1.70;;;;;;;17.77;96.47;101229.50;5179185;28;20500;-73
2022/07/13 01:04:48;;;;;;;2.60;1.50;;;;;;;17.81;97.44;101228.41;5180621;28;20026;-73
2022/07/13 01:07:19;;;;;;;2.65;1.60;;;;;;;17.71;97.80;101219.25;5180444;28;20017;-73
2022/07/13 01:09:49;;;;;;;3.00;1.90;;;;;;;17.55;100.00;101226.31;5176358;28;20104;-73
2022/07/13 01:12:20;;;;;;;3.35;1.70;;;;;;;17.73;98.77;101217.38;5176039;28;20030;-72
2022/07/13 01:14:50;;;;;;;2.67;1.88;;;;;;;17.60;100.00;101211.03;5179368;28;20030;-73
2022/07/13 01:17:21;;;;;;;3.95;1.65;;;;;;;17.59;100.00;101219.91;5162183;28;20041;-73
2022/07/13 01:19:56;;;;;;;4.53;1.90;;;;;;;17.68;100.00;101220.25;5179465;28;20026;-73
2022/07/13 01:22:35;;;;;;;12.10;1.93;;;;;;;17.83;99.79;101208.00;5171674;28;20538;-73
2022/07/13 01:25:05;;;;;;;4.15;1.90;;;;;;;17.90;98.86;101202.31;5177833;28;20703;-73
2022/07/13 01:27:38;;;;;;;3.08;1.60;;;;;;;17.70;100.00;101194.63;5178776;28;20029;-72
2022/07/13 01:30:08;;;;;;;4.35;1.85;;;;;;;17.80;100.00;101192.31;5162566;28;20486;-73
2022/07/13 01:32:50;;;;;;;2.13;1.55;;;;;;;17.83;99.67;101184.22;5179302;28;20246;-73
2022/07/13 01:35:23;;;;;;;2.97;1.75;;;;;;;17.87;100.00;101183.97;5179077;28;20083;-72
2022/07/13 01:37:54;;;;;;;2.85;1.77;;;;;;;17.74;100.00;101172.34;5171453;28;20065;-73
2022/07/13 01:40:24;;;;;;;4.78;1.63;;;;;;;17.67;100.00;101170.97;5174119;28;20043;-73
2022/07/13 01:42:55;;;;;;;2.03;1.52;;;;;;;17.48;100.00;101164.97;5179248;28;20021;-73
2022/07/13 01:45:25;;;;;;;2.65;1.63;;;;;;;17.38;100.00;101149.72;5195015;28;20486;-73
2022/07/13 01:47:56;;;;;;;2.05;1.67;;;;;;;17.36;100.00;101159.50;5180034;28;20018;-73
2022/07/13 01:50:27;;;;;;;2.72;1.80;;;;;;;17.27;100.00;101159.97;5179939;28;20483;-73
2022/07/13 01:52:58;;;;;;;2.97;2.00;;;;;;;17.21;100.00;101165.59;5172557;28;20095;-73
2022/07/13 01:55:28;;;;;;;2.83;1.83;;;;;;;17.24;100.00;101157.47;5178173;28;20026;-73
2022/07/13 01:57:59;;;;;;;2.85;1.80;;;;;;;17.25;100.00;101153.91;5178384;28;20381;-73
2022/07/13 02:00:30;;;;;;;3.35;1.75;;;;;;;17.39;100.00;101157.56;5178407;28;20029;-73
2022/07/13 02:03:00;;;;;;;3.33;1.63;;;;;;;17.64;100.00;101159.72;5195337;28;20034;-73
2022/07/13 02:05:31;;;;;;;3.97;1.70;;;;;;;17.77;98.81;101153.66;5178483;28;20025;-73
2022/07/13 02:08:02;;;;;;;3.03;2.00;;;;;;;17.68;99.53;101150.69;5177179;28;20061;-73
2022/07/13 02:10:35;;;;;;;3.08;1.88;;;;;;;17.48;100.00;101153.56;5174057;28;20488;-73
2022/07/13 02:13:12;;;;;;;5.40;2.28;;;;;;;17.46;100.00;101147.53;5176705;28;20113;-73
2022/07/13 02:15:43;;;;;;;4.78;2.85;;;;;;;17.43;100.00;101158.22;5178522;28;20022;-72
2022/07/13 02:18:13;;;;;;;5.00;2.15;;;;;;;17.48;100.00;101162.34;5162092;28;20026;-73
2022/07/13 02:20:44;;;;;;;3.03;2.00;;;;;;;17.78;100.00;101167.72;5179110;28;20025;-73
2022/07/13 02:23:15;;;;;;;2.97;1.70;;;;;;;17.71;98.83;101150.50;5172855;28;20487;-73
2022/07/13 02:25:45;;;;;;;2.90;1.80;;;;;;;17.88;99.19;101159.22;5179537;28;20422;-72
2022/07/13 02:28:16;;;;;;;2.28;1.70;;;;;;;17.98;99.22;101154.25;5178620;28;20014;-72
2022/07/13 02:30:46;;;;;;;3.92;1.70;;;;;;;18.01;99.14;101159.38;5179114;28;20108;-73
2022/07/13 02:33:16;;;;;;;4.03;1.50;;;;;;;17.83;98.80;101149.84;5178770;28;20030;-73
2022/07/13 02:35:47;;;;;;;1.98;1.33;;;;;;;17.64;100.00;101157.09;5178079;28;20022;-73
2022/07/13 02:38:17;;;;;;;1.95;1.42;;;;;;;17.78;100.00;101154.50;5177436;28;20109;-72
2022/07/13 02:40:47;;;;;;;2.05;1.55;;;;;;;17.77;99.15;101151.03;5189232;28;20112;-73
2022/07/13 02:43:18;;;;;;;2.38;1.50;;;;;;;17.67;100.00;101152.47;5178581;28;20022;-73
2022/07/13 02:45:48;;;;;;;3.33;1.63;;;;;;;17.74;100.00;101147.69;5178428;28;20033;-73
2022/07/13 02:48:19;;;;;;;4.20;1.80;;;;;;;17.67;100.00;101144.53;5177842;28;20045;-73
2022/07/13 02:50:49;;;;;;;2.33;1.55;;;;;;;17.81;100.00;101149.06;5178238;28;20096;-73
2022/07/13 02:53:19;;;;;;;2.65;1.70;;;;;;;17.70;100.00;101143.50;5171219;28;20033;-71
2022/07/13 02:55:50;;;;;;;2.42;1.67;;;;;;;17.66;100.00;101137.53;5179811;28;20032;-73
2022/07/13 02:58:20;;;;;;;5.55;2.63;;;;;;;17.67;100.00;101139.25;5177850;28;20057;-73
2022/07/13 03:00:52;;;;;;;2.08;1.45;;;;;;;17.67;100.00;101146.34;5177119;28;20335;-73
2022/07/13 03:03:22;;;;;;;4.47;1.70;;;;;;;17.83;100.00;101133.97;5154171;28;20121;-72
2022/07/13 03:05:52;;;;;;;2.45;1.60;;;;;;;17.84;100.00;101128.56;5178466;28;20456;-73
2022/07/13 03:08:23;;;;;;;3.58;1.73;;;;;;;17.61;100.00;101120.22;5168304;28;20026;-73
2022/07/13 03:10:53;;;;;;;3.20;1.60;;;;;;;17.63;100.00;101121.84;5161894;28;20472;-73
2022/07/13 03:13:23;;;;;;;3.30;1.90;;;;;;;17.62;100.00;101121.94;5178270;28;20213;-73
2022/07/13 03:15:54;;;;;;;2.88;1.85;;;;;;;17.76;100.00;101114.06;5162041;28;20026;-73
2022/07/13 03:18:24;;;;;;;2.85;1.85;;;;;;;17.75;100.00;101115.00;5164332;28;20025;-73
2022/07/13 03:20:55;;;;;;;2.88;1.60;;;;;;;17.76;100.00;101114.06;5194574;28;20076;-73
2022/07/13 03:23:25;;;;;;;3.47;1.65;;;;;;;17.59;100.00;101114.16;5156664;28;20029;-73
2022/07/13 03:25:56;;;;;;;2.95;1.60;;;;;;;17.58;100.00;101115.09;5198014;28;20220;-73
2022/07/13 03:28:26;;;;;;;2.50;1.63;;;;;;;17.42;100.00;101117.75;5181444;28;20414;-73
2022/07/13 03:30:57;;;;;;;2.92;1.38;;;;;;;17.63;100.00;101113.91;5181845;28;20095;-73
2022/07/13 03:33:27;;;;;;;3.55;1.80;;;;;;;17.60;100.00;101113.22;5181699;28;20185;-73
2022/07/13 03:35:57;;;;;;;3.58;1.65;;;;;;;17.52;100.00;101110.16;5181374;28;20108;-73
2022/07/13 03:38:28;;;;;;;1.50;1.30;;;;;;;17.74;100.00;101111.53;5179931;28;20018;-73
2022/07/13 03:40:59;;;;;;;2.00;1.55;;;;;;;17.76;100.00;101111.44;5162485;28;20137;-73
2022/07/13 03:43:29;;;;;;;4.28;1.63;;;;;;;17.75;100.00;101115.88;5195773;28;20475;-73
2022/07/13 03:46:00;;;;;;;3.65;1.60;;;;;;;17.70;100.00;101117.94;5182382;28;20034;-73
2022/07/13 03:48:30;;;;;;;3.72;1.90;;;;;;;17.73;100.00;101114.25;5181787;28;20088;-73
2022/07/13 03:51:00;;;;;;;3.40;1.60;;;;;;;17.80;100.00;101118.28;5178842;28;20026;-73
2022/07/13 03:53:31;;;;;;;2.85;1.50;;;;;;;18.01;98.81;101130.28;5174048;28;20022;-73
2022/07/13 03:56:01;;;;;;;3.17;1.48;;;;;;;18.01;100.00;101127.63;5180617;28;20025;-73
2022/07/13 03:58:32;;;;;;;2.10;1.52;;;;;;;18.06;98.90;101120.28;5175888;28;20042;-73
2022/07/13 04:01:02;;;;;;;1.90;1.50;;;;;;;18.10;99.26;101122.66;5182396;28;20036;-73
2022/07/13 04:03:32;;;;;;;2.20;1.52;;;;;;;18.09;99.92;101128.91;5182029;28;20033;-73
2022/07/13 04:06:03;;;;;;;2.15;1.50;;;;;;;18.00;99.69;101120.63;5182408;28;20030;-73
2022/07/13 04:08:34;;;;;;;2.58;1.40;;;;;;;18.03;100.00;101126.59;5180431;28;20412;-73
2022/07/13 04:11:04;;;;;;;2.17;1.40;;;;;;;18.08;100.00;101123.69;5155161;28;20026;-73
2022/07/13 04:13:35;;;;;;;2.28;1.58;;;;;;;18.05;100.00;101122.09;5172763;28;20029;-73
2022/07/13 04:16:05;;;;;;;2.20;1.52;;;;;;;18.14;100.00;101113.59;5164335;28;20132;-72
2022/07/13 04:18:36;;;;;;;1.95;1.50;;;;;;;18.12;100.00;101119.91;5179894;28;20022;-73
2022/07/13 04:21:07;;;;;;;2.05;1.50;;;;;;;18.06;100.00;101114.97;5197140;28;20316;-73
2022/07/13 04:23:37;;;;;;;4.22;1.70;;;;;;;18.13;100.00;101100.44;5180059;28;20115;-73
2022/07/13 04:26:07;;;;;;;2.10;1.50;;;;;;;18.15;100.00;101093.28;5174971;28;20026;-73
2022/07/13 04:28:38;;;;;;;5.15;1.48;;;;;;;18.27;100.00;101081.97;5179317;28;20499;-73
2022/07/13 04:31:08;;;;;;;1.80;1.40;;;;;;;18.31;100.00;101084.38;5178310;28;20056;-73
2022/07/13 04:33:38;;;;;;;1.95;1.40;;;;;;;18.29;100.00;101069.53;5167145;28;20041;-73
2022/07/13 04:36:09;;;;;;;3.78;1.45;;;;;;;18.33;100.00;101071.06;5173814;28;20022;-73
2022/07/13 04:38:39;;;;;;;1.92;1.50;;;;;;;18.31;100.00;101062.38;5168240;28;20107;-73
2022/07/13 04:41:11;;;;;;;3.70;1.80;;;;;;;18.39;100.00;101057.47;5187209;28;20176;-71
2022/07/13 04:43:45;;;;;;;2.33;1.50;;;;;;;18.25;100.00;101067.97;5168776;28;20034;-73
2022/07/13 04:46:15;;;;;;;3.50;1.52;;;;;;;18.19;100.00;101071.00;5165987;28;20025;-73
2022/07/13 04:48:46;;;;;;;4.85;1.42;;;;;;;18.44;100.00;101076.56;5175049;28;20028;-73
2022/07/13 04:51:16;;;;;;;1.70;1.38;;;;;;;18.57;100.00;101061.66;5173197;28;20125;-73
2022/07/13 04:53:46;;;;;;;1.70;1.35;;;;;;;18.70;99.50;101057.31;5177194;28;20021;-73
2022/07/13 04:56:17;;;;;;;1.83;1.40;;;;;;;18.85;99.37;101058.09;5179890;28;20018;-73
2022/07/13 04:58:47;;;;;;;1.90;1.40;;;;;;;18.95;99.44;101063.66;5172660;28;20388;-73
2022/07/13 05:01:17;;;;;;;1.60;1.20;;;;;;;19.06;98.34;101053.22;5189829;28;20083;-73
2022/07/13 05:03:48;;;;;;;2.03;1.20;;;;;;;18.96;99.42;101052.97;5179786;28;20061;-73
2022/07/13 05:06:18;;;;;;;1.90;1.23;;;;;;;18.98;99.02;101043.16;5179380;28;20112;-73
2022/07/13 05:08:48;;;;;;;2.60;1.38;;;;;;;18.76;100.00;101040.09;5177081;28;20435;-73
2022/07/13 05:11:19;;;;;;;1.70;1.30;;;;;;;18.97;100.00;101041.41;5171793;28;20033;-72
2022/07/13 05:13:50;;;;;;;1.95;1.27;;;;;;;19.16;98.23;101049.97;5196017;28;20459;-72
2022/07/13 05:16:20;;;;;;;3.85;1.67;;;;;;;19.21;98.49;101036.41;5176526;28;20029;-73
2022/07/13 05:18:51;;;;;;;2.85;1.35;;;;;;;19.18;99.11;101050.72;5180757;28;20022;-73
2022/07/13 05:21:21;;;;;;;2.58;1.48;;;;;;;19.34;98.14;101040.84;5175368;28;20415;-72
2022/07/13 05:23:52;;;;;;;3.63;1.55;;;;;;;19.50;97.86;101038.91;5172348;28;20029;-73
2022/07/13 05:26:22;;;;;;;3.78;1.40;;;;;;;19.62;97.30;101051.34;5180288;28;20029;-73
2022/07/13 05:28:52;;;;;;;3.08;1.50;;;;;;;19.81;96.99;101043.88;5173384;28;20076;-73
2022/07/13 05:31:23;;;;;;;2.03;1.13;;;;;;;19.87;96.08;101055.91;5178614;28;20181;-73
2022/07/13 05:33:53;;;;;;;1.38;1.10;;;;;;;20.17;95.15;101046.81;5180134;28;20475;-73
2022/07/13 05:36:23;;;;;;;1.85;1.05;;;;;;;20.45;95.69;101059.88;5178048;28;20104;-73
2022/07/13 05:38:54;;;;;;;1.77;1.35;;;;;;;20.47;95.83;101065.94;5174951;28;20431;-73
2022/07/13 05:41:24;;;;;;;2.22;1.10;;;;;;;20.54;94.78;101061.06;5174279;28;20026;-73
2022/07/13 05:43:54;;;;;;;1.48;1.13;;;;;;;20.67;94.77;101056.63;5179169;28;20030;-73
2022/07/13 05:46:26;;;;;;;1.67;1.25;;;;;;;20.56;92.35;101059.16;5179955;28;20540;-73
2022/07/13 05:48:56;;;;;;;1.38;1.00;;;;;;;20.62;93.73;101067.56;5195062;28;20067;-73
2022/07/13 05:51:27;;;;;;;4.65;1.15;;;;;;;20.79;93.58;101067.22;5174190;28;20285;-73
2022/07/13 05:53:57;;;;;;;1.65;1.13;;;;;;;20.99;94.94;101066.72;5172727;28;20740;-70
2022/07/13 05:56:28;;;;;;;2.58;1.10;;;;;;;21.11;96.60;101047.25;5178687;28;20037;-72
2022/07/13 05:58:58;;;;;;;1.55;1.00;;;;;;;21.26;95.66;101043.50;5169652;28;20764;-73
2022/07/13 06:01:28;;;;;;;2.90;0.90;;;;;;;21.28;91.14;101044.22;5173069;28;20022;-72
2022/07/13 06:03:59;;;;;;;2.88;1.10;;;;;;;21.46;88.41;101032.25;5166733;28;20499;-73
2022/07/13 06:06:29;;;;;;;1.67;1.00;;;;;;;21.35;87.95;101025.06;5164598;28;20500;-73
2022/07/13 06:08:59;;;;;;;2.65;1.05;;;;;;;21.45;87.42;101028.75;5161749;28;20037;-73
2022/07/13 06:11:30;;;;;;;1.45;0.90;;;;;;;21.41;87.71;101019.28;5169040;28;20030;-73
2022/07/13 06:14:01;;;;;;;3.17;0.77;;;;;;;21.46;88.44;101008.31;5176450;28;20030;-73
2022/07/13 06:16:31;;;;;;;2.58;0.80;;;;;;;21.54;87.24;101017.44;5176514;28;20029;-69
2022/07/13 06:19:01;;;;;;;3.25;0.90;;;;;;;21.76;87.02;101020.22;5179298;28;20030;-73
2022/07/13 06:21:32;;;;;;;3.42;1.20;;;;;;;21.97;86.81;101007.13;5178946;28;20471;-73
2022/07/13 06:24:02;;;;;;;1.83;0.88;;;;;;;21.85;87.69;100990.28;5165812;28;20026;-73
2022/07/13 06:26:33;;;;;;;2.33;1.00;;;;;;;22.06;88.61;100995.78;5159933;28;20029;-73
2022/07/13 06:29:03;;;;;;;3.80;0.80;;;;;;;22.04;89.26;100993.25;5162111;28;20381;-73
2022/07/13 06:31:34;;;;;;;1.85;0.80;;;;;;;22.26;88.56;100995.13;5159772;28;20518;-73
2022/07/13 06:34:04;;;;;;;4.10;0.80;;;;;;;22.49;84.30;100994.22;5162445;28;20034;-73
2022/07/13 06:36:34;;;;;;;2.75;0.80;;;;;;;22.56;82.37;100990.94;5157572;28;20026;-73
2022/07/13 06:39:05;;;;;;;2.42;0.73;;;;;;;22.78;80.14;100988.28;5161016;28;20027;-73
2022/07/13 06:41:35;;;;;;;3.00;0.68;;;;;;;22.92;79.24;100991.56;5167698;28;20395;-73
2022/07/13 06:44:06;;;;;;;3.40;0.70;;;;;;;23.13;79.00;101005.00;5161917;28;20025;-73
2022/07/13 06:46:36;;;;;;;3.25;1.05;;;;;;;23.12;78.46;100997.97;5178939;28;20113;-73
2022/07/13 06:49:07;;;;;;;4.78;0.88;;;;;;;23.17;77.68;100998.47;5178169;28;20060;-74
2022/07/13 06:51:37;;;;;;;6.13;1.10;;;;;;;23.27;78.79;101008.28;5194514;28;20029;-73
2022/07/13 06:54:07;;;;;;;4.13;1.20;;;;;;;23.46;77.37;100999.59;5175584;28;20100;-74
2022/07/13 06:56:38;;;;;;;3.42;1.00;;;;;;;23.57;78.37;100997.75;5163332;28;20030;-73
2022/07/13 06:59:08;;;;;;;9.90;1.10;;;;;;;23.56;77.39;101001.38;5198311;28;20240;-73
2022/07/13 07:01:39;;;;;;;4.90;1.30;;;;;;;23.74;77.69;100994.53;5195168;28;20555;-73
2022/07/13 07:04:09;;;;;;;3.90;0.95;;;;;;;23.74;77.20;100994.53;5195040;28;20021;-73
2022/07/13 07:06:39;;;;;;;2.58;1.15;;;;;;;23.90;78.40;100986.97;5180705;28;20026;-73
2022/07/13 07:09:10;;;;;;;5.18;1.42;;;;;;;24.67;75.60;100981.16;5180057;28;20451;-72
2022/07/13 07:11:40;;;;;;;9.20;1.90;;;;;;;24.72;72.51;100973.59;5178586;28;20038;-73
2022/07/13 07:14:10;;;;;;;3.92;1.50;;;;;;;26.04;70.52;100977.53;5181133;28;20036;-73
2022/07/13 07:16:42;;;;;;;3.72;1.50;;;;;;;27.15;66.83;100971.13;5180660;28;20033;-74
2022/07/13 07:19:12;;;;;;;10.05;1.73;;;;;;;26.79;64.78;100971.13;5181351;28;20029;-74
2022/07/13 07:21:43;;;;;;;4.15;1.48;;;;;;;27.59;63.33;100972.94;5183346;28;20364;-74
2022/07/13 07:24:13;;;;;;;1.77;1.00;;;;;;;28.61;59.16;100970.44;5183328;28;20459;-74
2022/07/13 07:26:43;;;;;;;4.00;0.90;;;;;;;28.82;58.26;100960.97;5182326;28;20128;-74
2022/07/13 07:29:14;;;;;;;4.10;1.10;;;;;;;28.37;57.59;100958.69;5181464;28;20026;-74
2022/07/13 07:31:45;;;;;;;2.15;1.00;;;;;;;27.82;59.29;100955.38;5179143;28;20072;-74
2022/07/13 07:34:16;;;;;;;5.68;1.00;;;;;;;27.90;60.73;100955.47;5178279;28;20319;-74
2022/07/13 07:36:46;;;;;;;2.40;0.95;;;;;;;29.16;57.00;100948.34;5180891;28;20037;-74
2022/07/13 07:39:16;;;;;;;3.40;0.98;;;;;;;29.40;56.40;100942.16;5178540;28;20022;-73
2022/07/13 07:41:47;;;;;;;5.45;0.90;;;;;;;29.31;55.80;100948.53;5189066;28;20125;-74
2022/07/13 07:44:18;;;;;;;3.47;0.70;;;;;;;29.14;55.92;100952.19;5169506;28;20113;-74
2022/07/13 07:46:49;;;;;;;3.55;0.80;;;;;;;30.62;52.55;100943.69;5169213;28;20075;-74
2022/07/13 07:49:19;;;;;;;4.65;0.93;;;;;;;30.45;53.83;100944.72;5179413;28;20484;-73
2022/07/13 07:51:50;;;;;;;3.25;0.80;;;;;;;29.60;52.48;100946.28;5181104;28;20034;-74
2022/07/13 07:54:20;;;;;;;2.15;0.70;;;;;;;29.77;52.09;100954.19;5180962;28;20468;-74
2022/07/13 07:56:51;;;;;;;3.25;0.80;;;;;;;29.37;51.30;100946.03;5180679;28;20026;-74
2022/07/13 07:59:21;;;;;;;1.73;0.70;;;;;;;29.33;53.96;100938.44;5179478;28;20506;-73
2022/07/13 08:01:51;;;;;;;1.55;0.68;;;;;;;28.92;54.36;100945.53;5177437;28;20105;-74
2022/07/13 08:04:22;;;;;;;7.93;0.70;;;;;;;29.01;53.06;100943.72;5160205;28;20018;-74
2022/07/13 08:06:52;;;;;;;1.58;0.70;;;;;;;28.78;52.66;100942.59;5165769;28;20121;-73
2022/07/13 08:09:23;;;;;;;1.20;0.70;;;;;;;28.78;52.99;100938.09;5163831;28;20411;-74
2022/07/13 08:11:53;;;;;;;2.92;0.70;;;;;;;28.79;54.43;100941.59;5165736;28;20045;-74
2022/07/13 08:14:24;;;;;;;2.08;0.75;;;;;;;28.83;55.50;100932.19;5176754;28;20032;-73
2022/07/13 08:16:54;;;;;;;2.35;0.85;;;;;;;28.89;54.81;100928.91;5177864;28;20300;-74
2022/07/13 08:19:24;;;;;;;2.70;0.80;;;;;;;28.56;53.91;100920.78;5178133;28;20025;-74
2022/07/13 08:21:55;;;;;;;1.60;0.77;;;;;;;28.64;52.92;100918.97;5180099;28;20095;-74
2022/07/13 08:24:25;;;;;;;1.73;0.80;;;;;;;28.47;52.85;100919.91;5177292;28;20176;-74
2022/07/13 08:26:55;;;;;;;1.48;0.82;;;;;;;28.46;54.39;100925.47;5177746;28;20029;-74
2022/07/13 08:29:26;;;;;;;5.30;0.90;;;;;;;28.21;54.98;100927.13;5175045;28;20018;-74
2022/07/13 08:31:56;;;;;;;0.93;0.70;;;;;;;28.18;55.99;100923.91;5196469;28;20129;-74
2022/07/13 08:40:13;;;;;;;2.75;1.00;;;;;;;28.05;58.02;100936.91;5173779;28;20165;-74
2022/07/13 08:42:43;;;;;;;1.77;1.00;;;;;;;28.04;58.44;100928.03;5162333;28;20431;-74
2022/07/13 08:45:14;;;;;;;1.08;0.80;;;;;;;27.97;58.41;100928.81;5181202;28;20029;-74
2022/07/13 08:47:46;;;;;;;2.45;1.00;;;;;;;27.76;57.31;100929.13;5180728;28;20100;-74
2022/07/13 08:50:20;;;;;;;2.90;1.00;;;;;;;27.87;57.14;100922.66;5196282;28;20468;-74
2022/07/13 08:52:50;;;;;;;4.07;1.13;;;;;;;28.36;56.33;100925.59;5196173;28;20041;-74
2022/07/13 08:55:21;;;;;;;10.85;1.65;;;;;;;28.38;56.12;100926.25;5177527;28;20060;-72
2022/07/13 08:57:51;;;;;;;2.88;1.30;;;;;;;28.74;56.10;100919.72;5157381;28;20475;-74
2022/07/13 09:00:22;;;;;;;2.90;1.30;;;;;;;28.89;56.27;100904.66;5159096;28;20268;-74
2022/07/13 09:02:53;;;;;;;1.92;1.00;;;;;;;29.24;57.44;100904.44;5180977;28;20030;-73
2022/07/13 09:05:26;;;;;;;2.22;0.93;;;;;;;30.38;53.63;100902.38;5179965;28;20028;-74
2022/07/13 09:08:03;;;;;;;3.92;0.90;;;;;;;31.27;54.50;100902.72;5180537;28;20415;-74
2022/07/13 09:10:59;;;;;;;5.15;1.38;;;;;;;31.53;51.21;100903.19;5174343;28;20029;-74
2022/07/13 09:13:44;;;;;;;3.60;1.20;;;;;;;31.74;49.91;100897.16;5175944;28;20014;-73
2022/07/13 09:16:28;;;;;;;3.30;1.17;;;;;;;31.06;51.99;100888.94;5180344;28;20113;-74
2022/07/13 09:19:00;;;;;;;4.40;1.13;;;;;;;30.53;52.19;100889.88;5174148;28;20055;-74
2022/07/13 09:21:31;;;;;;;4.07;1.10;;;;;;;30.92;50.72;100892.44;5179494;28;20117;-74
2022/07/13 09:24:03;;;;;;;2.28;1.08;;;;;;;30.81;53.60;100891.13;5179307;28;20113;-74
2022/07/13 09:26:45;;;;;;;3.40;0.90;;;;;;;30.60;51.66;100880.09;5174869;28;20041;-73
2022/07/13 09:29:20;;;;;;;3.58;1.20;;;;;;;30.56;51.91;100887.66;5178633;28;20483;-74
2022/07/13 09:31:55;;;;;;;;;;;;;;;30.41;53.75;100883.19;5163300;28;20380;-74
2022/07/13 09:34:54;;;;;;;4.28;0.90;;;;;;;30.54;51.91;100880.75;5173114;28;19913;-74
2022/07/13 09:37:27;;;;;;;3.70;1.20;;;;;;;30.32;52.95;100878.81;5171964;28;20442;-74
2022/07/13 09:40:06;;;;;;;2.60;1.00;;;;;;;30.56;52.52;100878.75;5175485;28;20093;-72
2022/07/13 09:42:42;;;;;;;2.88;1.20;;;;;;;30.57;51.62;100873.16;5174954;28;20479;-73
2022/07/13 09:48:12;;;;;;;2.55;0.80;;;;;;;30.45;52.23;100884.50;5164057;28;20044;-72
2022/07/13 09:50:43;;;;;;;4.00;1.20;;;;;;;30.34;52.14;100887.56;5166705;28;20032;-73
2022/07/13 09:53:23;;;;;;;1.48;0.93;;;;;;;30.58;51.44;100876.75;5184019;28;20026;-73
2022/07/13 09:55:55;;;;;;;1.70;0.90;;;;;;;30.74;52.98;100874.78;5179294;28;20289;-73
2022/07/13 09:58:28;;;;;;;2.10;0.90;;;;;;;30.60;53.12;100878.22;5170418;28;20697;-73
2022/07/13 10:01:02;;;;;;;5.97;1.20;;;;;;;30.47;51.72;100872.53;5168692;28;20029;-73
2022/07/13 10:03:33;;;;;;;1.83;1.00;;;;;;;30.51;53.84;100886.50;5169032;28;20030;-73
2022/07/13 10:06:05;;;;;;;2.95;1.10;;;;;;;30.78;52.98;100869.91;5167838;28;20157;-73
2022/07/13 10:08:39;;;;;;;1.63;0.90;;;;;;;31.02;53.40;100868.72;5167641;28;20091;-73
2022/07/13 10:11:09;;;;;;;2.38;0.90;;;;;;;30.93;52.99;100859.00;5148581;28;20089;-73
2022/07/13 10:13:40;;;;;;;2.40;1.20;;;;;;;30.98;51.27;100859.31;5165189;28;20072;-73
2022/07/13 10:16:10;;;;;;;4.07;1.23;;;;;;;31.09;52.66;100856.22;5164253;28;20029;-73
2022/07/13 10:18:42;;;;;;;1.23;0.80;;;;;;;31.73;50.75;100853.03;5162669;28;20030;-73
2022/07/13 10:21:26;;;;;;;1.30;0.82;;;;;;;31.43;50.37;100855.81;5150217;28;20409;-73
2022/07/13 10:23:58;;;;;;;2.70;1.00;;;;;;;31.72;51.29;100859.47;5156131;28;20047;-72
2022/07/13 10:26:30;;;;;;;1.27;0.85;;;;;;;31.53;52.40;100846.44;5138174;28;20023;-72
2022/07/13 10:29:11;;;;;;;1.08;0.73;;;;;;;31.77;51.53;100853.50;5167458;28;20467;-73
2022/07/13 10:31:43;;;;;;;3.05;0.90;;;;;;;31.21;49.55;100860.19;5166882;28;20164;-73
2022/07/13 10:34:13;;;;;;;3.22;1.27;;;;;;;30.65;50.16;100848.00;5170832;28;20032;-73
2022/07/13 10:36:53;;;;;;;3.05;0.88;;;;;;;30.46;49.43;100854.63;5170155;28;20455;-73
2022/07/13 10:39:28;;;;;;;2.63;1.05;;;;;;;30.28;50.64;100855.91;5167105;28;20030;-72
2022/07/13 10:41:59;;;;;;;3.05;1.13;;;;;;;30.40;53.96;100847.25;5165857;28;20533;-72
2022/07/13 10:44:32;;;;;;;2.17;1.05;;;;;;;30.57;50.73;100845.34;5167152;28;20042;-73
2022/07/13 10:47:07;;;;;;;3.88;1.20;;;;;;;30.53;52.50;100849.38;5168139;28;20054;-72
2022/07/13 10:49:44;;;;;;;3.08;0.80;;;;;;;30.65;52.77;100845.31;5169395;28;20105;-73
2022/07/13 10:52:21;;;;;;;3.38;1.20;;;;;;;30.49;51.59;100845.34;5184792;28;20061;-72
2022/07/13 10:55:04;;;;;;;2.10;1.08;;;;;;;30.91;54.50;100844.84;5165130;28;20073;-72
2022/07/13 10:57:36;;;;;;;5.32;1.20;;;;;;;30.91;53.47;100839.44;5170982;28;20072;-73
2022/07/13 11:00:25;;;;;;;3.33;1.00;;;;;;;30.81;51.11;100837.97;5170215;28;20026;-73
2022/07/13 11:03:05;;;;;;;3.92;1.08;;;;;;;31.02;51.04;100832.78;5167056;28;20554;-72
2022/07/13 11:05:36;;;;;;;2.20;1.08;;;;;;;31.50;53.60;100833.28;5171310;28;20055;-72
2022/07/13 11:08:14;;;;;;;2.08;1.00;;;;;;;31.50;52.33;100822.47;5166330;28;20030;-71
2022/07/13 11:11:08;;;;;;;4.57;1.20;;;;;;;31.37;53.56;100837.63;5172610;28;20032;-72
2022/07/13 11:13:39;;;;;;;4.75;1.10;;;;;;;31.28;51.93;100834.16;5185834;28;20503;-73
2022/07/13 11:16:12;;;;;;;1.85;0.88;;;;;;;31.19;52.51;100828.97;5165950;28;20033;-73
2022/07/13 11:18:42;;;;;;;5.90;1.10;;;;;;;31.53;51.94;100816.69;5164735;28;20034;-72
2022/07/13 11:21:14;;;;;;;4.15;1.08;;;;;;;31.53;52.62;100818.56;5162201;28;20030;-72
2022/07/13 11:26:52;;;;;;;3.22;1.10;;;;;;;31.60;52.65;100812.25;5165872;28;20511;-72
2022/07/13 11:29:45;;;;;;;2.35;0.98;;;;;;;31.79;51.66;100805.50;5164825;28;20022;-73
2022/07/13 11:32:20;;;;;;;2.08;0.95;;;;;;;31.72;51.08;100801.84;5171414;28;20030;-72
2022/07/13 11:34:52;;;;;;;2.63;1.10;;;;;;;31.30;50.12;100806.91;5167804;28;20032;-73
2022/07/13 11:37:23;;;;;;;3.58;1.00;;;;;;;30.90;50.70;100804.50;5165290;28;20034;-72
2022/07/13 11:39:53;;;;;;;4.57;1.00;;;;;;;30.79;52.96;100804.06;5169942;28;20033;-72
2022/07/13 11:42:24;;;;;;;3.97;1.15;;;;;;;30.79;50.71;100802.19;5168823;28;20034;-73
2022/07/13 11:44:54;;;;;;;2.70;1.27;;;;;;;31.09;50.63;100791.38;5165887;28;20573;-72
2022/07/13 11:47:27;;;;;;;3.42;1.10;;;;;;;31.02;49.85;100792.28;5170316;28;20080;-72
2022/07/13 11:49:57;;;;;;;2.83;1.15;;;;;;;31.35;49.94;100778.34;5167805;28;20515;-73
2022/07/13 11:52:29;;;;;;;6.85;1.30;;;;;;;31.26;50.86;100781.28;5169000;28;20033;-73
2022/07/13 11:55:04;;;;;;;2.92;1.00;;;;;;;31.55;51.02;100775.97;5171303;28;20118;-73
2022/07/13 11:57:35;;;;;;;2.97;1.00;;;;;;;31.49;52.64;100772.13;5171202;28;20476;-72